Time;durP1;ratioP1;P1;durP2;ratioP2;P2;SDS_P1;SDS_P2;PMS_P1;PMS_P2;Temp;Humidity;BMP_temperature;BMP_pressure;BME280_temperature;BME280_humidity;BME280_pressure;Samples;Min_cycle;Max_cycle;Signal;HPM_P1;HPM_P2
2022/09/23 00:01:15;;;;;;;;;;;18.90;64.00;;;;;;4506457;31;20500;-64
2022/09/23 00:03:41;;;;;;;;;;;18.90;63.90;;;;;;4507113;31;20029;-63
2022/09/23 00:06:09;;;;;;;;;;;18.90;63.90;;;;;;4515084;31;20159;-64
2022/09/23 00:08:35;;;;;;;;;;;18.90;63.90;;;;;;4514401;31;20386;-64
2022/09/23 00:11:27;;;;;;;;;;;18.90;63.90;;;;;;4509378;31;20016;-64
2022/09/23 00:13:54;;;;;;;;;;;18.90;63.90;;;;;;4513627;31;20029;-64
2022/09/23 00:16:22;;;;;;;;;;;18.90;63.90;;;;;;4513982;31;20044;-64
2022/09/23 00:18:49;;;;;;;;;;;18.90;63.90;;;;;;4515112;31;20151;-64
2022/09/23 00:21:15;;;;;;;;;;;18.90;63.90;;;;;;4508057;31;20095;-64
2022/09/23 00:23:42;;;;;;;;;;;18.90;63.90;;;;;;4514485;31;20024;-64
2022/09/23 00:26:08;;;;;;;;;;;18.90;63.80;;;;;;4514249;31;20032;-64
2022/09/23 00:28:34;;;;;;;;;;;18.90;63.80;;;;;;4514077;31;20462;-63
2022/09/23 00:31:05;;;;;;;;;;;18.90;63.80;;;;;;4514223;31;20028;-64
2022/09/23 00:33:30;;;;;;;;;;;18.90;63.80;;;;;;4514147;31;20072;-64
2022/09/23 00:36:00;;;;;;;;;;;18.80;63.80;;;;;;4514661;31;20035;-64
2022/09/23 00:38:26;;;;;;;;;;;18.90;63.80;;;;;;4513693;31;20028;-64
2022/09/23 00:40:52;;;;;;;;;;;18.80;63.70;;;;;;4514534;31;20033;-64
2022/09/23 00:43:18;;;;;;;;;;;18.80;63.70;;;;;;4513825;31;20021;-65
2022/09/23 00:45:47;;;;;;;;;;;18.80;63.70;;;;;;4514077;31;20473;-64
2022/09/23 00:48:19;;;;;;;;;;;18.80;63.70;;;;;;4514130;31;20485;-63
2022/09/23 00:50:48;;;;;;;;;;;18.80;63.70;;;;;;4513494;31;20020;-63
2022/09/23 00:53:16;;;;;;;;;;;18.80;63.60;;;;;;4514463;31;20040;-64
2022/09/23 00:55:47;;;;;;;;;;;18.80;63.60;;;;;;4513340;31;20217;-64
2022/09/23 00:58:14;;;;;;;;;;;18.80;63.70;;;;;;4513677;31;20047;-63
2022/09/23 01:00:41;;;;;;;;;;;18.80;63.60;;;;;;4513701;31;20405;-63
2022/09/23 01:03:08;;;;;;;;;;;18.80;63.60;;;;;;4513519;31;20083;-64
2022/09/23 01:05:35;;;;;;;;;;;18.80;63.60;;;;;;4514020;31;20106;-64
2022/09/23 01:08:01;;;;;;;;;;;18.80;63.60;;;;;;4513172;31;20016;-64
2022/09/23 01:10:32;;;;;;;;;;;18.80;63.60;;;;;;4514285;31;20201;-63
2022/09/23 01:13:12;;;;;;;;;;;18.80;63.60;;;;;;4512259;31;20013;-64
2022/09/23 01:16:13;;;;;;;;;;;18.80;63.60;;;;;;4513665;31;20051;-64
2022/09/23 01:19:14;;;;;;;;;;;18.80;63.60;;;;;;4480341;32;20025;-64
2022/09/23 01:21:40;;;;;;;;;;;18.80;63.60;;;;;;4466088;32;20445;-63
2022/09/23 01:24:21;;;;;;;;;;;18.80;63.60;;;;;;4506475;31;20028;-63
2022/09/23 01:27:00;;;;;;;;;;;18.80;63.60;;;;;;4513625;31;20083;-63
2022/09/23 01:29:25;;;;;;;;;;;18.70;63.50;;;;;;4497091;31;20159;-63
2022/09/23 01:32:06;;;;;;;;;;;18.80;63.50;;;;;;4507205;31;20031;-64
2022/09/23 01:34:32;;;;;;;;;;;18.70;63.50;;;;;;4497191;31;20032;-64
2022/09/23 01:37:02;;;;;;;;;;;18.70;63.50;;;;;;4507522;31;20035;-63
2022/09/23 01:39:34;;;;;;;;;;;18.70;63.50;;;;;;4513220;31;20021;-64
2022/09/23 01:42:21;;;;;;;;;;;18.70;63.40;;;;;;4513267;31;20064;-63
2022/09/23 01:45:00;;;;;;;;;;;18.70;63.50;;;;;;4498003;31;20160;-64
2022/09/23 01:47:32;;;;;;;;;;;18.70;63.50;;;;;;4509041;31;20033;-64
2022/09/23 01:50:00;;;;;;;;;;;18.70;63.50;;;;;;4513240;31;20032;-64
2022/09/23 01:52:28;;;;;;;;;;;18.70;63.40;;;;;;4512835;31;20171;-63
2022/09/23 01:54:57;;;;;;;;;;;18.70;63.50;;;;;;4512927;31;20039;-63
2022/09/23 01:57:30;;;;;;;;;;;18.70;63.40;;;;;;4513386;31;20043;-63
2022/09/23 02:00:07;;;;;;;;;;;18.70;63.50;;;;;;4512706;31;20048;-63
2022/09/23 02:02:36;;;;;;;;;;;18.70;63.40;;;;;;4513269;31;20394;-63
2022/09/23 02:05:14;;;;;;;;;;;18.70;63.40;;;;;;4512849;31;20167;-63
2022/09/23 02:07:45;;;;;;;;;;;18.70;63.40;;;;;;4512774;31;20037;-63
2022/09/23 02:10:17;;;;;;;;;;;18.70;63.40;;;;;;4507671;31;20053;-63
2022/09/23 02:12:45;;;;;;;;;;;18.70;63.40;;;;;;4511122;31;20067;-64
2022/09/23 02:15:14;;;;;;;;;;;18.70;63.40;;;;;;4513072;31;20071;-63
2022/09/23 02:17:43;;;;;;;;;;;18.70;63.40;;;;;;4512705;31;20041;-64
2022/09/23 02:20:12;;;;;;;;;;;18.70;63.40;;;;;;4512788;31;20135;-64
2022/09/23 02:22:48;;;;;;;;;;;18.60;63.30;;;;;;4513123;31;20091;-64
2022/09/23 02:25:16;;;;;;;;;;;18.70;63.40;;;;;;4512400;31;20109;-64
2022/09/23 02:28:05;;;;;;;;;;;18.70;63.30;;;;;;4502224;31;20024;-64
2022/09/23 02:30:37;;;;;;;;;;;18.70;63.40;;;;;;4506057;31;20619;-64
2022/09/23 02:33:03;;;;;;;;;;;18.60;63.30;;;;;;4512657;31;20045;-64
2022/09/23 02:35:40;;;;;;;;;;;18.60;63.20;;;;;;4512879;31;20031;-63
2022/09/23 02:38:38;;;;;;;;;;;18.60;63.30;;;;;;4512350;31;20400;-64
2022/09/23 02:41:08;;;;;;;;;;;18.60;63.30;;;;;;4482591;31;20048;-63
2022/09/23 02:43:38;;;;;;;;;;;18.60;63.20;;;;;;4504973;31;20099;-64
2022/09/23 02:46:04;;;;;;;;;;;18.60;63.20;;;;;;4515008;31;20421;-63
2022/09/23 02:48:36;;;;;;;;;;;18.60;63.30;;;;;;4516191;31;20021;-63
2022/09/23 02:51:03;;;;;;;;;;;18.60;63.20;;;;;;4515017;31;20089;-63
2022/09/23 02:53:32;;;;;;;;;;;18.60;63.30;;;;;;4508919;31;20047;-64
2022/09/23 02:55:59;;;;;;;;;;;18.60;63.20;;;;;;4510846;31;20036;-63
2022/09/23 02:58:25;;;;;;;;;;;18.60;63.20;;;;;;4515486;31;20041;-64
2022/09/23 03:00:51;;;;;;;;;;;18.60;63.30;;;;;;4515797;31;20028;-63
2022/09/23 03:03:32;;;;;;;;;;;18.60;63.30;;;;;;4515375;31;20134;-64
2022/09/23 03:06:01;;;;;;;;;;;18.60;63.30;;;;;;4516213;31;20033;-64
2022/09/23 03:08:49;;;;;;;;;;;18.60;63.20;;;;;;4514806;31;20084;-63
2022/09/23 03:11:16;;;;;;;;;;;18.60;63.30;;;;;;4515436;31;20424;-64
2022/09/23 03:14:05;;;;;;;;;;;18.60;63.20;;;;;;4515571;31;20028;-63
2022/09/23 03:16:43;;;;;;;;;;;18.50;63.20;;;;;;4514784;31;20028;-64
2022/09/23 03:19:12;;;;;;;;;;;18.60;63.20;;;;;;4515854;31;20406;-63
2022/09/23 03:21:44;;;;;;;;;;;18.60;63.20;;;;;;4514870;31;20044;-63
2022/09/23 03:24:13;;;;;;;;;;;18.50;63.20;;;;;;4515361;31;20121;-63
2022/09/23 03:26:39;;;;;;;;;;;18.50;63.20;;;;;;4515348;31;20012;-63
2022/09/23 03:29:10;;;;;;;;;;;18.50;63.10;;;;;;4514660;31;20047;-64
2022/09/23 03:31:38;;;;;;;;;;;18.50;63.20;;;;;;4515817;31;20070;-64
2022/09/23 03:34:09;;;;;;;;;;;18.50;63.20;;;;;;4513446;31;20025;-64
2022/09/23 03:36:50;;;;;;;;;;;18.50;63.10;;;;;;4506106;31;20051;-64
2022/09/23 03:39:25;;;;;;;;;;;18.50;63.10;;;;;;4514784;31;20089;-64
2022/09/23 03:41:51;;;;;;;;;;;18.50;63.20;;;;;;4514753;31;20040;-64
2022/09/23 03:44:18;;;;;;;;;;;18.50;63.00;;;;;;4515326;31;20033;-64
2022/09/23 03:46:49;;;;;;;;;;;18.50;63.10;;;;;;4514439;31;20047;-63
2022/09/23 03:49:26;;;;;;;;;;;18.50;63.00;;;;;;4515328;31;20554;-63
2022/09/23 03:51:58;;;;;;;;;;;18.50;63.00;;;;;;4514636;31;20110;-63
2022/09/23 03:54:28;;;;;;;;;;;18.50;63.00;;;;;;4514420;31;20037;-64
2022/09/23 03:56:58;;;;;;;;;;;18.50;63.00;;;;;;4514621;31;20032;-63
2022/09/23 03:59:24;;;;;;;;;;;18.50;63.00;;;;;;4501964;31;20039;-64
2022/09/23 04:01:50;;;;;;;;;;;18.50;63.10;;;;;;4515444;31;20032;-65
2022/09/23 04:04:15;;;;;;;;;;;18.50;63.20;;;;;;4514002;31;20036;-63
2022/09/23 04:06:41;;;;;;;;;;;18.50;63.10;;;;;;4515043;31;20039;-63
2022/09/23 04:09:07;;;;;;;;;;;18.50;63.10;;;;;;4514600;31;20017;-63
2022/09/23 04:11:33;;;;;;;;;;;18.50;63.10;;;;;;4514444;31;20020;-64
2022/09/23 04:13:59;;;;;;;;;;;18.40;63.00;;;;;;4514720;31;20054;-64
2022/09/23 04:16:25;;;;;;;;;;;18.50;63.20;;;;;;4513884;31;20078;-64
2022/09/23 04:18:50;;;;;;;;;;;18.50;63.10;;;;;;4515089;31;20029;-63
2022/09/23 04:21:16;;;;;;;;;;;18.50;63.20;;;;;;4512878;31;20033;-63
2022/09/23 04:23:42;;;;;;;;;;;18.50;63.10;;;;;;4486402;31;20472;-63
2022/09/23 04:26:08;;;;;;;;;;;18.40;63.00;;;;;;4506224;31;20086;-63
2022/09/23 04:28:34;;;;;;;;;;;18.40;63.10;;;;;;4513907;31;20142;-63
2022/09/23 04:31:06;;;;;;;;;;;18.40;63.10;;;;;;4514527;31;20217;-64
2022/09/23 04:33:32;;;;;;;;;;;18.40;63.10;;;;;;4513774;31;20086;-64
2022/09/23 04:35:58;;;;;;;;;;;18.40;63.10;;;;;;4514761;31;20032;-63
2022/09/23 04:38:24;;;;;;;;;;;18.40;63.10;;;;;;4513790;31;20513;-64
2022/09/23 04:40:50;;;;;;;;;;;18.40;63.10;;;;;;4514298;31;20075;-64
2022/09/23 04:43:16;;;;;;;;;;;18.40;63.10;;;;;;4513911;31;20027;-64
2022/09/23 04:45:42;;;;;;;;;;;18.40;63.10;;;;;;4513794;31;20032;-63
2022/09/23 04:48:09;;;;;;;;;;;18.40;63.10;;;;;;4514383;31;20027;-63
2022/09/23 04:50:35;;;;;;;;;;;18.40;63.10;;;;;;4513405;31;20160;-64
2022/09/23 04:53:01;;;;;;;;;;;18.40;63.10;;;;;;4514481;31;20036;-63
2022/09/23 04:55:27;;;;;;;;;;;18.40;63.10;;;;;;4513505;31;20017;-64
2022/09/23 04:57:53;;;;;;;;;;;18.40;63.10;;;;;;4513964;31;20025;-63
2022/09/23 05:00:19;;;;;;;;;;;18.40;63.20;;;;;;4513668;31;20441;-64
2022/09/23 05:02:45;;;;;;;;;;;18.40;63.10;;;;;;4513685;31;20024;-64
2022/09/23 05:05:12;;;;;;;;;;;18.40;63.20;;;;;;4513505;31;20036;-64
2022/09/23 05:07:38;;;;;;;;;;;18.40;63.10;;;;;;4513076;31;20044;-63
2022/09/23 05:10:04;;;;;;;;;;;18.40;63.10;;;;;;4514337;31;20013;-64
2022/09/23 05:12:29;;;;;;;;;;;18.30;63.10;;;;;;4513187;31;20490;-64
2022/09/23 05:14:55;;;;;;;;;;;18.40;63.10;;;;;;4514077;31;20296;-63
2022/09/23 05:17:21;;;;;;;;;;;18.30;63.10;;;;;;4513249;31;20035;-64
2022/09/23 05:19:46;;;;;;;;;;;18.30;63.00;;;;;;4513514;31;20063;-63
2022/09/23 05:22:12;;;;;;;;;;;18.30;63.10;;;;;;4513340;31;20013;-64
2022/09/23 05:24:38;;;;;;;;;;;18.30;63.00;;;;;;4513053;31;20062;-64
2022/09/23 05:27:05;;;;;;;;;;;18.30;63.00;;;;;;4513868;31;20027;-65
2022/09/23 05:29:32;;;;;;;;;;;18.30;63.20;;;;;;4512729;31;20044;-63
2022/09/23 05:31:57;;;;;;;;;;;18.30;63.00;;;;;;4512859;31;20241;-63
2022/09/23 05:34:23;;;;;;;;;;;18.30;64.00;;;;;;4513115;31;20037;-64
2022/09/23 05:36:49;;;;;;;;;;;18.30;63.10;;;;;;4513255;31;20543;-64
2022/09/23 05:39:15;;;;;;;;;;;18.30;63.10;;;;;;4513424;31;20023;-64
2022/09/23 05:41:42;;;;;;;;;;;18.30;63.10;;;;;;4513063;31;20420;-63
2022/09/23 05:44:08;;;;;;;;;;;18.30;63.10;;;;;;4513575;31;20024;-64
2022/09/23 05:46:34;;;;;;;;;;;18.30;63.10;;;;;;4512727;31;20552;-63
2022/09/23 05:49:00;;;;;;;;;;;18.30;63.10;;;;;;4513800;31;20031;-64
2022/09/23 05:51:26;;;;;;;;;;;18.30;63.20;;;;;;4512824;31;20041;-63
2022/09/23 05:53:53;;;;;;;;;;;18.30;63.10;;;;;;4513193;31;20056;-64
2022/09/23 05:56:23;;;;;;;;;;;18.30;64.10;;;;;;4513001;31;20059;-64
2022/09/23 05:58:50;;;;;;;;;;;18.30;63.20;;;;;;4512714;31;20046;-63
2022/09/23 06:01:17;;;;;;;;;;;18.30;63.20;;;;;;4513347;31;20021;-64
2022/09/23 06:03:46;;;;;;;;;;;18.30;63.20;;;;;;4512643;31;20158;-63
2022/09/23 06:06:16;;;;;;;;;;;18.30;63.20;;;;;;4513347;31;20064;-63
2022/09/23 06:08:43;;;;;;;;;;;18.30;63.20;;;;;;4512831;31;20065;-64
2022/09/23 06:11:09;;;;;;;;;;;18.30;63.30;;;;;;4512840;31;20040;-64
2022/09/23 06:13:36;;;;;;;;;;;18.30;63.30;;;;;;4512945;31;20135;-64
2022/09/23 06:16:04;;;;;;;;;;;18.30;63.20;;;;;;4512604;31;20500;-64
2022/09/23 06:18:30;;;;;;;;;;;18.20;63.20;;;;;;4512873;31;20043;-63
2022/09/23 06:20:58;;;;;;;;;;;18.30;63.20;;;;;;4511339;31;20029;-63
2022/09/23 06:23:24;;;;;;;;;;;18.30;63.30;;;;;;4513209;31;20592;-64
2022/09/23 06:25:50;;;;;;;;;;;18.20;63.20;;;;;;4512654;31;20082;-64
2022/09/23 06:28:15;;;;;;;;;;;18.20;63.20;;;;;;4512596;31;20394;-64
2022/09/23 06:30:41;;;;;;;;;;;18.30;63.30;;;;;;4512789;31;20032;-64
2022/09/23 06:33:07;;;;;;;;;;;18.20;63.20;;;;;;4512529;31;20050;-63
2022/09/23 06:35:33;;;;;;;;;;;18.20;63.20;;;;;;4513097;31;20498;-64
2022/09/23 06:38:02;;;;;;;;;;;18.20;63.20;;;;;;4511005;31;20071;-64
2022/09/23 06:40:27;;;;;;;;;;;18.20;63.30;;;;;;4502187;31;20142;-63
2022/09/23 06:42:59;;;;;;;;;;;18.20;63.30;;;;;;4512443;31;20038;-63
2022/09/23 06:45:26;;;;;;;;;;;18.20;63.30;;;;;;4511872;31;20037;-63
2022/09/23 06:47:56;;;;;;;;;;;18.20;63.30;;;;;;4512292;31;20441;-63
2022/09/23 06:50:26;;;;;;;;;;;18.20;63.30;;;;;;4511867;31;20143;-63
2022/09/23 06:52:57;;;;;;;;;;;18.20;63.30;;;;;;4512171;31;20036;-63
2022/09/23 06:55:23;;;;;;;;;;;18.20;63.30;;;;;;4511702;31;20540;-63
2022/09/23 06:57:49;;;;;;;;;;;18.20;63.30;;;;;;4497743;31;20045;-63
2022/09/23 07:00:15;;;;;;;;;;;18.30;63.50;;;;;;4512082;31;20135;-63
2022/09/23 07:02:41;;;;;;;;;;;18.20;63.30;;;;;;4511836;31;20123;-63
2022/09/23 07:05:08;;;;;;;;;;;18.20;62.80;;;;;;4509918;31;20095;-63
2022/09/23 07:07:35;;;;;;;;;;;18.20;62.40;;;;;;4511853;31;20021;-64
2022/09/23 07:10:01;;;;;;;;;;;18.20;62.20;;;;;;4506594;31;20943;-63
2022/09/23 07:12:27;;;;;;;;;;;18.20;62.30;;;;;;4507428;31;20101;-65
2022/09/23 07:14:52;;;;;;;;;;;18.20;62.60;;;;;;4512398;31;20101;-64
2022/09/23 07:17:19;;;;;;;;;;;18.20;62.70;;;;;;4511747;31;20071;-64
2022/09/23 07:19:45;;;;;;;;;;;18.20;62.70;;;;;;4510699;31;20121;-64
2022/09/23 07:22:11;;;;;;;;;;;18.20;62.80;;;;;;4511948;31;20149;-64
2022/09/23 07:24:37;;;;;;;;;;;18.20;63.00;;;;;;4512116;31;20021;-64
2022/09/23 07:27:04;;;;;;;;;;;18.20;63.00;;;;;;4512625;31;20095;-64
2022/09/23 07:29:30;;;;;;;;;;;18.20;63.10;;;;;;4524356;31;20090;-64
2022/09/23 07:31:55;;;;;;;;;;;18.20;63.20;;;;;;4515607;31;20103;-64
2022/09/23 07:34:21;;;;;;;;;;;18.20;63.20;;;;;;4514648;31;20017;-64
2022/09/23 07:36:47;;;;;;;;;;;18.20;63.20;;;;;;4514939;31;20029;-63
2022/09/23 07:39:12;;;;;;;;;;;18.20;63.20;;;;;;4514853;31;20036;-64
2022/09/23 07:41:40;;;;;;;;;;;18.20;63.30;;;;;;4527055;31;20143;-63
2022/09/23 07:44:07;;;;;;;;;;;18.20;63.30;;;;;;4515205;31;20032;-63
2022/09/23 07:46:34;;;;;;;;;;;18.20;63.40;;;;;;4514418;31;20024;-63
2022/09/23 07:49:02;;;;;;;;;;;18.20;63.40;;;;;;4511536;31;20043;-64
2022/09/23 07:51:29;;;;;;;;;;;18.20;63.60;;;;;;4506819;31;20032;-64
2022/09/23 07:53:55;;;;;;;;;;;18.20;63.60;;;;;;4514699;31;20443;-64
2022/09/23 07:56:24;;;;;;;;;;;18.30;63.70;;;;;;4514627;31;20021;-64
2022/09/23 07:58:58;;;;;;;;;;;18.30;63.80;;;;;;4514325;31;20179;-64
2022/09/23 08:01:30;;;;;;;;;;;18.30;63.90;;;;;;4515460;31;20040;-64
2022/09/23 08:03:56;;;;;;;;;;;18.30;63.90;;;;;;4514233;31;20149;-64
2022/09/23 08:06:22;;;;;;;;;;;18.30;63.60;;;;;;4500666;31;20469;-63
2022/09/23 08:08:48;;;;;;;;;;;18.30;63.70;;;;;;4499412;31;20032;-63
2022/09/23 08:11:13;;;;;;;;;;;18.30;63.60;;;;;;4513653;31;20478;-63
2022/09/23 08:13:40;;;;;;;;;;;18.30;63.70;;;;;;4526800;31;20020;-63
2022/09/23 08:16:05;;;;;;;;;;;18.30;63.70;;;;;;4514112;31;20039;-64
2022/09/23 08:18:32;;;;;;;;;;;18.30;63.80;;;;;;4527143;31;20025;-63
2022/09/23 08:20:57;;;;;;;;;;;18.30;63.80;;;;;;4513586;31;20028;-64
2022/09/23 08:23:23;;;;;;;;;;;18.30;63.80;;;;;;4514401;31;20037;-64
2022/09/23 08:25:57;;;;;;;;;;;18.30;63.90;;;;;;4513664;31;20036;-64
2022/09/23 08:28:24;;;;;;;;;;;18.30;64.00;;;;;;4513702;31;20072;-64
2022/09/23 08:30:50;;;;;;;;;;;18.30;64.00;;;;;;4513925;31;20121;-64
2022/09/23 08:33:16;;;;;;;;;;;18.30;64.00;;;;;;4513555;31;20044;-64
2022/09/23 08:35:42;;;;;;;;;;;18.30;64.00;;;;;;4514356;31;20039;-64
2022/09/23 08:38:08;;;;;;;;;;;18.40;64.10;;;;;;4512260;31;20025;-64
2022/09/23 08:40:35;;;;;;;;;;;18.30;64.10;;;;;;4514164;31;20139;-64
2022/09/23 08:43:01;;;;;;;;;;;18.30;64.10;;;;;;4512658;31;20032;-65
2022/09/23 08:45:27;;;;;;;;;;;18.30;64.10;;;;;;4512385;31;20486;-64
2022/09/23 08:48:05;;;;;;;;;;;18.30;64.10;;;;;;4513519;31;20047;-64
2022/09/23 08:50:48;;;;;;;;;;;18.30;64.10;;;;;;4511814;31;20040;-64
2022/09/23 08:53:34;;;;;;;;;;;18.30;64.20;;;;;;4512036;31;20520;-63
2022/09/23 08:56:32;;;;;;;;;;;18.30;64.20;;;;;;4511511;31;20017;-64
2022/09/23 08:59:07;;;;;;;;;;;18.30;64.20;;;;;;4494824;31;20040;-64
2022/09/23 09:01:34;;;;;;;;;;;18.30;64.20;;;;;;4514195;31;20091;-64
2022/09/23 09:04:01;;;;;;;;;;;18.30;64.20;;;;;;4512875;31;20384;-64
2022/09/23 09:06:39;;;;;;;;;;;18.30;64.20;;;;;;4513672;31;20032;-65
2022/09/23 09:09:10;;;;;;;;;;;18.30;64.20;;;;;;4513630;31;20047;-63
2022/09/23 09:11:37;;;;;;;;;;;18.30;64.20;;;;;;4513322;31;20020;-64
2022/09/23 09:14:09;;;;;;;;;;;18.30;64.10;;;;;;4514076;31;20054;-63
2022/09/23 09:16:55;;;;;;;;;;;18.30;64.80;;;;;;4512887;31;20048;-63
2022/09/23 09:19:29;;;;;;;;;;;18.30;64.00;;;;;;4508279;31;20033;-63
2022/09/23 09:21:55;;;;;;;;;;;18.30;64.10;;;;;;4511314;31;20041;-63
2022/09/23 09:24:28;;;;;;;;;;;18.40;64.30;;;;;;4513353;31;20043;-64
2022/09/23 09:26:54;;;;;;;;;;;18.40;64.30;;;;;;4513830;31;20033;-64
2022/09/23 09:29:25;;;;;;;;;;;18.40;64.40;;;;;;4512682;31;20163;-64
2022/09/23 09:31:51;;;;;;;;;;;18.40;64.40;;;;;;4513840;31;20025;-63
2022/09/23 09:34:23;;;;;;;;;;;18.40;64.70;;;;;;4512646;31;20012;-64
2022/09/23 09:36:52;;;;;;;;;;;18.40;64.50;;;;;;4513044;31;20176;-64
2022/09/23 09:39:18;;;;;;;;;;;18.40;64.40;;;;;;4512983;31;20040;-64
2022/09/23 09:41:48;;;;;;;;;;;18.40;64.60;;;;;;4510346;31;20363;-64
2022/09/23 09:44:33;;;;;;;;;;;18.40;64.50;;;;;;4512958;31;20155;-65
2022/09/23 09:47:05;;;;;;;;;;;18.40;64.40;;;;;;4511644;31;20045;-65
2022/09/23 09:49:35;;;;;;;;;;;18.40;64.50;;;;;;4511907;31;20040;-65
2022/09/23 09:52:10;;;;;;;;;;;18.40;64.60;;;;;;4511636;31;20021;-65
2022/09/23 09:54:37;;;;;;;;;;;18.40;64.70;;;;;;4510674;31;20183;-65
2022/09/23 09:57:04;;;;;;;;;;;18.40;64.60;;;;;;4511024;31;20443;-64
2022/09/23 09:59:31;;;;;;;;;;;18.40;64.60;;;;;;4511635;31;20079;-65
2022/09/23 10:02:13;;;;;;;;;;;18.40;64.40;;;;;;4512917;31;20032;-65
2022/09/23 10:04:40;;;;;;;;;;;18.40;64.50;;;;;;4511905;31;20029;-64
2022/09/23 10:07:08;;;;;;;;;;;18.40;64.50;;;;;;4512280;31;20044;-65
2022/09/23 10:09:36;;;;;;;;;;;18.40;64.40;;;;;;4510691;31;20039;-65
2022/09/23 10:12:09;;;;;;;;;;;18.40;64.40;;;;;;4511865;31;20145;-65
2022/09/23 10:14:35;;;;;;;;;;;18.40;64.30;;;;;;4510584;31;20068;-64
2022/09/23 10:17:04;;;;;;;;;;;18.40;64.30;;;;;;4511544;31;20039;-63
2022/09/23 10:19:30;;;;;;;;;;;18.40;64.30;;;;;;4511650;31;20433;-64
2022/09/23 10:21:59;;;;;;;;;;;18.50;64.20;;;;;;4511730;31;20058;-63
2022/09/23 10:24:26;;;;;;;;;;;18.50;64.00;;;;;;4510962;31;20032;-65
2022/09/23 10:26:55;;;;;;;;;;;18.50;64.00;;;;;;4510615;31;20391;-64
2022/09/23 10:29:29;;;;;;;;;;;18.50;63.90;;;;;;4511245;31;20036;-64
2022/09/23 10:32:13;;;;;;;;;;;18.50;64.00;;;;;;4510870;31;20039;-63
2022/09/23 10:34:42;;;;;;;;;;;18.50;64.00;;;;;;4512188;31;20039;-63
2022/09/23 10:37:13;;;;;;;;;;;18.50;63.70;;;;;;4511807;31;20091;-63
2022/09/23 10:48:27;;;;;;;;;;;18.50;63.90;;;;;;4511537;31;20033;-64
2022/09/23 10:50:54;;;;;;;;;;;18.50;63.80;;;;;;4511247;31;20032;-63
2022/09/23 10:53:42;;;;;;;;;;;18.50;63.80;;;;;;4479775;31;21041;-64
2022/09/23 10:56:14;;;;;;;;;;;18.50;63.80;;;;;;4509661;31;20044;-64
2022/09/23 10:59:06;;;;;;;;;;;18.50;63.80;;;;;;4511675;31;20028;-64
2022/09/23 11:01:38;;;;;;;;;;;18.50;63.90;;;;;;4521707;31;20102;-63
2022/09/23 11:04:05;;;;;;;;;;;18.50;63.80;;;;;;4511604;31;20162;-63
2022/09/23 11:06:49;;;;;;;;;;;18.50;63.70;;;;;;4515535;31;20495;-63
2022/09/23 11:09:15;;;;;;;;;;;18.50;63.80;;;;;;4514998;31;20109;-63
2022/09/23 11:11:53;;;;;;;;;;;18.50;63.90;;;;;;4515310;31;20028;-63
2022/09/23 11:14:19;;;;;;;;;;;18.50;63.80;;;;;;4515978;31;20039;-63
2022/09/23 11:16:54;;;;;;;;;;;18.50;63.80;;;;;;4514759;31;20033;-64
2022/09/23 11:19:22;;;;;;;;;;;18.50;63.80;;;;;;4514510;31;20040;-64
2022/09/23 11:21:57;;;;;;;;;;;18.50;63.80;;;;;;4503753;31;20374;-64
2022/09/23 11:24:26;;;;;;;;;;;18.60;64.10;;;;;;4514250;31;20110;-64
2022/09/23 11:26:55;;;;;;;;;;;18.50;64.00;;;;;;4513442;31;20154;-64
2022/09/23 11:29:28;;;;;;;;;;;18.50;64.00;;;;;;4505330;31;20052;-64
2022/09/23 11:32:07;;;;;;;;;;;18.50;64.00;;;;;;4515487;31;20177;-64
2022/09/23 11:34:57;;;;;;;;;;;18.50;64.00;;;;;;4514119;31;20080;-64
2022/09/23 11:37:30;;;;;;;;;;;18.50;64.20;;;;;;4503704;31;20150;-64
2022/09/23 11:40:02;;;;;;;;;;;18.50;64.20;;;;;;4515836;31;20032;-64
2022/09/23 11:42:35;;;;;;;;;;;18.50;64.20;;;;;;4514524;31;20040;-64
2022/09/23 11:45:05;;;;;;;;;;;18.50;64.20;;;;;;4499474;31;20048;-64
2022/09/23 11:47:36;;;;;;;;;;;18.50;64.20;;;;;;4511920;31;20153;-64
2022/09/23 11:50:06;;;;;;;;;;;18.50;64.40;;;;;;4506751;31;20033;-65
2022/09/23 11:52:40;;;;;;;;;;;18.50;64.60;;;;;;4512368;31;20169;-64
2022/09/23 11:55:12;;;;;;;;;;;18.50;64.90;;;;;;4513226;31;20495;-63
2022/09/23 11:58:01;;;;;;;;;;;18.50;65.00;;;;;;4512984;31;20075;-62
2022/09/23 12:00:31;;;;;;;;;;;18.50;65.20;;;;;;4505792;31;20036;-63
2022/09/23 12:03:17;;;;;;;;;;;18.60;64.90;;;;;;4513929;31;20043;-64
2022/09/23 12:05:46;;;;;;;;;;;18.60;65.20;;;;;;4514776;31;20556;-64
2022/09/23 12:08:28;;;;;;;;;;;18.60;65.20;;;;;;4513597;31;20045;-64
2022/09/23 12:11:12;;;;;;;;;;;18.60;65.30;;;;;;4513109;31;20032;-63
2022/09/23 12:13:39;;;;;;;;;;;18.60;65.40;;;;;;4512931;31;20048;-63
2022/09/23 12:16:23;;;;;;;;;;;18.60;65.50;;;;;;4510855;31;20039;-63
2022/09/23 12:19:03;;;;;;;;;;;18.60;65.40;;;;;;4513094;31;20059;-63
2022/09/23 12:21:58;;;;;;;;;;;18.60;65.70;;;;;;4512671;31;20477;-62
2022/09/23 12:24:42;;;;;;;;;;;18.60;65.40;;;;;;4487821;31;20087;-64
2022/09/23 12:27:10;;;;;;;;;;;18.60;65.70;;;;;;4512660;31;20041;-64
2022/09/23 12:29:37;;;;;;;;;;;18.60;65.90;;;;;;4512564;31;20412;-63
2022/09/23 12:32:08;;;;;;;;;;;18.70;65.90;;;;;;4512847;31;20032;-63
2022/09/23 12:34:42;;;;;;;;;;;18.70;65.90;;;;;;4512899;31;20057;-63
2022/09/23 12:37:08;;;;;;;;;;;18.60;66.00;;;;;;4512071;31;20032;-63
2022/09/23 12:39:37;;;;;;;;;;;18.70;66.00;;;;;;4511648;31;20033;-63
2022/09/23 12:42:04;;;;;;;;;;;18.70;65.90;;;;;;4511946;31;20012;-64
2022/09/23 12:44:35;;;;;;;;;;;18.70;66.00;;;;;;4512809;31;20041;-63
2022/09/23 12:47:13;;;;;;;;;;;18.70;66.00;;;;;;4512087;31;20045;-63
2022/09/23 12:49:40;;;;;;;;;;;18.70;66.10;;;;;;4510870;31;20367;-63
2022/09/23 12:52:15;;;;;;;;;;;18.70;66.20;;;;;;4512199;31;20068;-63
2022/09/23 12:54:42;;;;;;;;;;;18.70;66.30;;;;;;4511093;31;20039;-63
2022/09/23 12:57:10;;;;;;;;;;;18.70;66.30;;;;;;4513215;31;20179;-64
2022/09/23 12:59:55;;;;;;;;;;;18.70;66.00;;;;;;4511922;31;20028;-64
2022/09/23 13:02:38;;;;;;;;;;;18.70;66.00;;;;;;4512550;31;20025;-63
2022/09/23 13:07:59;;;;;;;;;;;18.70;66.10;;;;;;4511933;31;20047;-64
2022/09/23 13:10:33;;;;;;;;;;;18.70;66.20;;;;;;4512963;31;20150;-64
2022/09/23 13:13:01;;;;;;;;;;;18.70;66.10;;;;;;4512523;31;20064;-65
2022/09/23 13:15:27;;;;;;;;;;;18.70;65.90;;;;;;4513102;31;20082;-64
2022/09/23 13:18:13;;;;;;;;;;;18.80;66.20;;;;;;4513539;31;20024;-63
2022/09/23 13:20:39;;;;;;;;;;;18.80;66.00;;;;;;4502322;31;20013;-63
2022/09/23 13:23:21;;;;;;;;;;;18.70;66.00;;;;;;4514156;31;20116;-63
2022/09/23 13:25:50;;;;;;;;;;;18.70;66.00;;;;;;4501777;31;20024;-63
2022/09/23 13:28:25;;;;;;;;;;;18.70;66.20;;;;;;4502755;31;20139;-62
2022/09/23 13:30:51;;;;;;;;;;;18.80;66.20;;;;;;4496843;31;20029;-62
2022/09/23 13:33:36;;;;;;;;;;;18.80;66.20;;;;;;4505845;31;20473;-62
2022/09/23 13:36:03;;;;;;;;;;;18.70;66.10;;;;;;4498152;31;20039;-62
2022/09/23 13:38:31;;;;;;;;;;;18.80;66.20;;;;;;4507772;31;20024;-62
2022/09/23 13:40:57;;;;;;;;;;;18.80;66.30;;;;;;4513291;31;20528;-62
2022/09/23 13:43:31;;;;;;;;;;;18.80;66.30;;;;;;4513293;31;20025;-62
2022/09/23 13:45:57;;;;;;;;;;;18.70;66.30;;;;;;4512090;31;20044;-62
2022/09/23 13:48:24;;;;;;;;;;;18.70;66.30;;;;;;4513277;31;20162;-62
2022/09/23 13:50:52;;;;;;;;;;;18.70;66.50;;;;;;4512076;31;20078;-61
2022/09/23 13:53:24;;;;;;;;;;;18.70;66.60;;;;;;4512337;31;20159;-61
2022/09/23 13:56:24;;;;;;;;;;;18.70;66.60;;;;;;4510768;31;20040;-61
2022/09/23 13:58:51;;;;;;;;;;;18.70;66.70;;;;;;4484827;31;20025;-61
2022/09/23 14:01:33;;;;;;;;;;;18.70;66.80;;;;;;4513111;31;20490;-61
2022/09/23 14:04:01;;;;;;;;;;;18.70;66.70;;;;;;4512122;31;20029;-61
2022/09/23 14:06:29;;;;;;;;;;;18.70;66.60;;;;;;4512526;31;20028;-63
2022/09/23 14:08:56;;;;;;;;;;;18.70;66.70;;;;;;4512441;31;20048;-63
2022/09/23 14:11:28;;;;;;;;;;;18.70;66.60;;;;;;4509632;31;20036;-61
2022/09/23 14:13:54;;;;;;;;;;;18.70;66.40;;;;;;4511416;31;20021;-61
2022/09/23 14:16:20;;;;;;;;;;;18.70;66.50;;;;;;4511718;31;20064;-62
2022/09/23 14:18:50;;;;;;;;;;;18.70;66.60;;;;;;4512994;31;20042;-61
2022/09/23 14:21:25;;;;;;;;;;;18.70;66.70;;;;;;4511635;31;20021;-62
2022/09/23 14:23:51;;;;;;;;;;;18.70;66.70;;;;;;4511683;31;20037;-64
2022/09/23 14:26:17;;;;;;;;;;;18.60;66.80;;;;;;4512211;31;20032;-62
2022/09/23 14:28:43;;;;;;;;;;;18.60;66.60;;;;;;4512291;31;20075;-61
2022/09/23 14:31:09;;;;;;;;;;;18.70;66.60;;;;;;4513196;31;20025;-61
2022/09/23 14:33:38;;;;;;;;;;;18.60;66.60;;;;;;4512121;31;20087;-62
2022/09/23 14:36:07;;;;;;;;;;;18.60;66.60;;;;;;4513223;31;20024;-61
2022/09/23 14:38:49;;;;;;;;;;;18.60;66.50;;;;;;4512464;31;20047;-62
2022/09/23 14:41:20;;;;;;;;;;;18.60;66.50;;;;;;4515597;31;20051;-61
2022/09/23 14:43:48;;;;;;;;;;;18.60;66.50;;;;;;4516262;31;20036;-61
2022/09/23 14:46:18;;;;;;;;;;;18.60;66.60;;;;;;4515147;31;20081;-62